createdAt,value
2022-07-26T00:02:00.699Z,81.71
2022-07-26T00:07:04.505Z,82.22
2022-07-26T00:12:09.255Z,78.11
2022-07-26T00:17:14.556Z,79.06
2022-07-26T00:22:36.305Z,78.73
2022-07-26T00:27:40.037Z,79.60
2022-07-26T00:32:45.090Z,80.58
2022-07-26T00:37:49.261Z,80.69
2022-07-26T00:42:54.117Z,80.35
2022-07-26T00:47:59.102Z,84.11
2022-07-26T00:53:02.755Z,87.65
2022-07-26T00:58:06.996Z,88.29
2022-07-26T01:03:12.169Z,88.48
2022-07-26T01:08:16.041Z,90.90
2022-07-26T01:13:21.035Z,91.19
2022-07-26T01:18:26.195Z,93.39
2022-07-26T01:23:31.270Z,92.78
2022-07-26T01:28:39.058Z,93.55
2022-07-26T01:33:43.483Z,97.73
2022-07-26T01:38:48.652Z,100.00
2022-07-26T01:43:52.161Z,98.10
2022-07-26T01:48:55.799Z,99.70
2022-07-26T01:54:01.014Z,100.00
2022-07-26T01:59:04.609Z,100.00
2022-07-26T02:04:08.988Z,100.00
2022-07-26T02:09:14.321Z,100.00
2022-07-26T02:14:25.738Z,100.00
2022-07-26T02:19:32.476Z,100.00
2022-07-26T02:24:37.735Z,100.00
2022-07-26T02:29:41.715Z,100.00
2022-07-26T02:34:45.361Z,100.00
2022-07-26T02:39:50.293Z,100.00
2022-07-26T02:44:54.197Z,100.00
2022-07-26T02:49:57.849Z,100.00
2022-07-26T02:55:20.434Z,100.00
2022-07-26T03:00:25.971Z,100.00
2022-07-26T03:05:29.777Z,100.00
2022-07-26T03:10:34.757Z,100.00
2022-07-26T03:15:38.437Z,100.00
2022-07-26T03:20:42.155Z,100.00
2022-07-26T03:25:47.105Z,100.00
2022-07-26T03:30:50.840Z,100.00
2022-07-26T03:35:54.331Z,100.00
2022-07-26T03:41:00.127Z,100.00
2022-07-26T03:46:03.767Z,100.00
2022-07-26T03:51:07.779Z,100.00
2022-07-26T03:56:32.395Z,100.00
2022-07-26T04:01:36.975Z,100.00
2022-07-26T04:06:41.740Z,100.00
2022-07-26T04:11:48.762Z,100.00
2022-07-26T04:16:52.550Z,100.00
2022-07-26T04:21:56.283Z,100.00
2022-07-26T04:27:01.324Z,100.00
2022-07-26T04:32:05.100Z,100.00
2022-07-26T04:37:08.618Z,100.00
2022-07-26T04:42:13.530Z,100.00
2022-07-26T04:47:17.199Z,100.00
2022-07-26T04:52:21.063Z,100.00
2022-07-26T04:57:26.065Z,100.00
2022-07-26T05:02:29.936Z,100.00
2022-07-26T05:07:41.091Z,100.00
2022-07-26T05:12:46.609Z,100.00
2022-07-26T05:17:50.069Z,100.00
2022-07-26T05:22:53.829Z,100.00
2022-07-26T05:27:58.791Z,99.40
2022-07-26T05:33:02.585Z,94.08
2022-07-26T05:38:06.524Z,93.77
2022-07-26T05:43:11.529Z,85.44
2022-07-26T05:48:15.195Z,91.09
2022-07-26T05:53:18.782Z,85.62
2022-07-26T05:58:23.883Z,80.26
2022-07-26T06:03:27.623Z,78.94
2022-07-26T06:08:31.518Z,79.06
2022-07-26T06:13:36.622Z,76.66
2022-07-26T06:18:40.240Z,71.84
2022-07-26T06:23:43.694Z,60.00
2022-07-26T06:28:50.469Z,52.18
2022-07-26T06:33:53.956Z,48.30
2022-07-26T06:38:57.575Z,45.90
2022-07-26T06:44:02.918Z,44.10
2022-07-26T06:49:07.153Z,43.54
2022-07-26T06:54:11.377Z,42.96
2022-07-26T06:59:16.997Z,42.37
2022-07-26T07:04:20.653Z,41.57
2022-07-26T07:09:24.694Z,39.89
2022-07-26T07:14:30.662Z,42.33
2022-07-26T07:19:37.256Z,42.26
2022-07-26T07:24:42.384Z,41.85
2022-07-26T07:29:47.714Z,42.33
2022-07-26T07:34:51.437Z,42.53
2022-07-26T07:39:55.301Z,42.89
2022-07-26T07:45:01.918Z,42.70
2022-07-26T07:50:06.492Z,41.58
2022-07-26T07:55:36.643Z,42.60
2022-07-26T08:00:36.042Z,42.10
2022-07-26T08:05:40.862Z,42.14
2022-07-26T08:10:51.953Z,42.77
2022-07-26T08:15:58.073Z,42.02
2022-07-26T08:21:04.614Z,41.41
2022-07-26T08:26:08.682Z,42.02
2022-07-26T08:31:13.822Z,41.52
2022-07-26T08:36:18.371Z,40.44
2022-07-26T08:41:23.298Z,40.04
2022-07-26T08:46:28.854Z,39.79
2022-07-26T08:51:33.117Z,42.98
2022-07-26T08:56:38.357Z,44.86
2022-07-26T09:01:57.190Z,42.16
2022-07-26T09:07:03.782Z,40.89
2022-07-26T09:12:18.961Z,39.27
2022-07-26T09:17:26.041Z,39.66
2022-07-26T09:22:29.859Z,38.38
2022-07-26T09:27:37.402Z,37.69
2022-07-26T09:32:42.317Z,37.02
2022-07-26T09:37:47.032Z,36.70
2022-07-26T09:42:58.536Z,37.64
2022-07-26T09:48:04.717Z,37.84
2022-07-26T09:53:09.806Z,39.03
2022-07-26T09:58:14.274Z,39.75
2022-07-26T10:03:19.691Z,41.71
2022-07-26T10:08:23.510Z,41.80
2022-07-26T10:13:30.338Z,41.48
2022-07-26T10:18:50.166Z,37.44
2022-07-26T10:23:57.971Z,36.71
2022-07-26T10:29:27.419Z,39.55
2022-07-26T10:34:34.559Z,41.51
2022-07-26T10:39:39.405Z,42.43
2022-07-26T10:44:45.344Z,39.80
2022-07-26T10:49:58.994Z,40.96
2022-07-26T10:55:11.491Z,41.22
2022-07-26T11:00:24.240Z,38.81
2022-07-26T11:05:33.812Z,38.11
2022-07-26T11:10:39.910Z,38.95
2022-07-26T11:15:46.365Z,37.93
2022-07-26T11:20:55.280Z,39.33
2022-07-26T11:26:14.413Z,39.39
2022-07-26T11:31:20.032Z,39.38
2022-07-26T11:36:39.509Z,40.32
2022-07-26T11:41:44.558Z,43.44
2022-07-26T11:46:48.903Z,45.27
2022-07-26T11:51:55.959Z,45.80
2022-07-26T11:57:01.355Z,47.62
2022-07-26T12:02:07.349Z,46.89
2022-07-26T12:07:15.033Z,46.54
2022-07-26T12:12:23.706Z,45.58
2022-07-26T12:17:35.102Z,44.99
2022-07-26T12:22:41.498Z,43.62
2022-07-26T12:27:47.585Z,44.15
2022-07-26T12:32:54.502Z,43.83
2022-07-26T12:37:59.500Z,42.80
2022-07-26T12:43:03.739Z,44.42
2022-07-26T12:48:11.041Z,44.38
2022-07-26T12:53:15.871Z,44.95
2022-07-26T12:58:19.372Z,45.43
2022-07-26T13:03:23.025Z,45.33
2022-07-26T13:08:27.835Z,45.69
2022-07-26T13:13:31.409Z,46.42
2022-07-26T13:18:34.910Z,47.42
2022-07-26T13:23:40.661Z,46.65
2022-07-26T13:28:44.461Z,47.28
2022-07-26T13:33:53.058Z,45.61
2022-07-26T13:38:58.225Z,45.93
2022-07-26T13:44:01.778Z,46.05
2022-07-26T13:49:07.140Z,44.87
2022-07-26T13:54:13.479Z,44.49
2022-07-26T13:59:17.508Z,44.42
2022-07-26T14:04:22.215Z,43.53
2022-07-26T14:09:27.552Z,42.71
2022-07-26T14:14:31.059Z,41.82
2022-07-26T14:19:36.694Z,43.00
2022-07-26T14:24:41.881Z,42.99
2022-07-26T14:29:46.427Z,43.79
2022-07-26T14:34:50.077Z,43.78
2022-07-26T14:39:55.093Z,44.00
2022-07-26T14:44:58.677Z,42.87
2022-07-26T14:50:06.489Z,42.37
2022-07-26T14:55:13.205Z,41.97
2022-07-26T15:00:18.611Z,41.62
2022-07-26T15:05:23.415Z,41.49
2022-07-26T15:10:31.362Z,42.47
2022-07-26T15:15:35.056Z,42.70
2022-07-26T15:20:40.707Z,42.02
2022-07-26T15:25:48.750Z,43.14
2022-07-26T15:30:52.896Z,42.93
2022-07-26T15:35:56.645Z,43.56
2022-07-26T15:41:01.567Z,44.51
2022-07-26T15:46:06.210Z,44.68
2022-07-26T15:51:11.699Z,45.02
2022-07-26T15:56:17.176Z,45.84
2022-07-26T16:01:20.936Z,46.33
2022-07-26T16:06:24.636Z,53.79
2022-07-26T16:11:30.176Z,55.83
2022-07-26T16:16:34.086Z,56.59
2022-07-26T16:21:38.304Z,56.53
2022-07-26T16:26:43.998Z,57.90
2022-07-26T16:31:48.440Z,58.63
2022-07-26T16:36:51.967Z,57.96
2022-07-26T16:41:57.101Z,58.56
2022-07-26T16:47:01.096Z,59.22
2022-07-26T16:52:05.880Z,59.85
2022-07-26T16:57:11.242Z,60.41
2022-07-26T17:02:15.011Z,62.23
2022-07-26T17:07:26.404Z,61.79
2022-07-26T17:12:31.876Z,62.42
2022-07-26T17:17:35.431Z,63.93
2022-07-26T17:22:39.407Z,65.34
2022-07-26T17:27:44.705Z,64.43
2022-07-26T17:32:48.679Z,65.09
2022-07-26T17:37:55.571Z,65.35
2022-07-26T17:43:01.407Z,67.41
2022-07-26T17:48:06.503Z,66.08
2022-07-26T17:53:10.509Z,65.45
2022-07-26T17:58:15.562Z,64.69
2022-07-26T18:03:20.264Z,64.46
2022-07-26T18:08:27.233Z,67.65
2022-07-26T18:13:32.509Z,68.31
2022-07-26T18:18:36.420Z,69.50
2022-07-26T18:23:54.635Z,68.40
2022-07-26T18:29:04.800Z,68.52
2022-07-26T18:34:08.471Z,69.92
2022-07-26T18:39:13.541Z,71.41
2022-07-26T18:44:19.542Z,70.57
2022-07-26T18:49:30.703Z,70.48
2022-07-26T18:54:34.673Z,73.31
2022-07-26T18:59:39.805Z,71.52
2022-07-26T19:04:43.416Z,76.28
2022-07-26T19:09:46.810Z,78.67
2022-07-26T19:14:51.796Z,76.66
2022-07-26T19:19:56.204Z,79.66
2022-07-26T19:25:00.815Z,82.87
2022-07-26T19:30:06.720Z,81.26
2022-07-26T19:35:10.924Z,86.15
2022-07-26T19:40:14.461Z,86.64
2022-07-26T19:45:19.406Z,86.89
2022-07-26T19:50:22.933Z,87.05
2022-07-26T19:55:26.483Z,89.92
2022-07-26T20:00:31.591Z,91.96
2022-07-26T20:05:35.191Z,91.63
2022-07-26T20:10:38.706Z,95.36
2022-07-26T20:15:44.245Z,98.38
2022-07-26T20:20:47.821Z,97.86
2022-07-26T20:25:51.456Z,96.50
2022-07-26T20:30:56.539Z,95.86
2022-07-26T20:36:00.128Z,98.21
2022-07-26T20:41:03.690Z,97.07
2022-07-26T20:46:10.873Z,97.59
2022-07-26T20:51:14.483Z,98.12
2022-07-26T20:56:18.616Z,100.00
2022-07-26T21:01:24.387Z,100.00
2022-07-26T21:06:29.173Z,100.00
2022-07-26T21:11:33.418Z,100.00
2022-07-26T21:16:39.089Z,100.00
2022-07-26T21:21:42.717Z,100.00
2022-07-26T21:26:46.150Z,100.00
2022-07-26T21:31:51.140Z,100.00
2022-07-26T21:36:54.986Z,100.00
2022-07-26T21:41:58.548Z,100.00
2022-07-26T21:47:05.906Z,100.00
2022-07-26T21:52:09.861Z,100.00
2022-07-26T21:57:13.507Z,100.00
2022-07-26T22:02:19.934Z,100.00
2022-07-26T22:07:25.390Z,100.00
2022-07-26T22:12:30.074Z,100.00
2022-07-26T22:17:35.036Z,100.00
2022-07-26T22:22:39.129Z,100.00
2022-07-26T22:27:42.653Z,100.00
2022-07-26T22:32:47.756Z,100.00
2022-07-26T22:37:51.695Z,100.00
2022-07-26T22:42:58.756Z,100.00
2022-07-26T22:48:04.861Z,100.00
2022-07-26T22:53:08.296Z,100.00
2022-07-26T22:58:12.219Z,100.00
2022-07-26T23:03:20.090Z,100.00
2022-07-26T23:13:52.075Z,100.00
2022-07-26T23:19:04.134Z,100.00
2022-07-26T23:24:08.367Z,100.00
2022-07-26T23:29:12.324Z,100.00
2022-07-26T23:34:17.646Z,99.67
2022-07-26T23:39:22.306Z,99.02
2022-07-26T23:44:25.982Z,99.34
2022-07-26T23:49:31.139Z,100.00
2022-07-26T23:54:34.778Z,99.72
2022-07-26T23:59:38.423Z,99.95
